Time;durP1;ratioP1;P1;durP2;ratioP2;P2;SDS_P1;SDS_P2;PMS_P1;PMS_P2;Temp;Humidity;BMP_temperature;BMP_pressure;BME280_temperature;BME280_humidity;BME280_pressure;Samples;Min_cycle;Max_cycle;Signal;HPM_P1;HPM_P2
2022/03/27 00:01:47;;;;;;;6.00;3.13;;;4.50;69.70;;;;;;5078090;28;20316;-68
2022/03/27 00:04:13;;;;;;;6.33;2.67;;;4.40;70.00;;;;;;5076615;28;20212;-69
2022/03/27 00:06:40;;;;;;;7.73;2.43;;;4.30;70.20;;;;;;5076879;28;20331;-70
2022/03/27 00:09:07;;;;;;;5.43;2.50;;;4.30;70.30;;;;;;5077013;28;20201;-69
2022/03/27 00:11:34;;;;;;;7.80;2.70;;;4.30;71.10;;;;;;5077713;28;20205;-68
2022/03/27 00:14:05;;;;;;;4.73;2.23;;;4.20;71.40;;;;;;5077852;28;20282;-69
2022/03/27 00:16:34;;;;;;;5.90;2.37;;;4.10;71.70;;;;;;5077625;28;20246;-69
2022/03/27 00:19:02;;;;;;;5.17;2.23;;;4.10;72.10;;;;;;5076711;28;20210;-69
2022/03/27 00:21:29;;;;;;;5.03;2.37;;;4.10;72.30;;;;;;5077080;28;20225;-68
2022/03/27 00:23:57;;;;;;;5.97;2.23;;;4.00;72.40;;;;;;5077234;28;20225;-70
2022/03/27 00:26:24;;;;;;;5.57;2.10;;;4.00;72.60;;;;;;5074439;28;20285;-69
2022/03/27 00:28:51;;;;;;;4.60;2.53;;;4.00;72.70;;;;;;5071440;28;20232;-70
2022/03/27 00:31:19;;;;;;;5.80;2.30;;;4.00;72.80;;;;;;5069183;28;20208;-69
2022/03/27 00:33:48;;;;;;;4.90;2.30;;;4.00;72.80;;;;;;5073850;28;20205;-69
2022/03/27 00:36:16;;;;;;;5.03;2.10;;;3.90;72.70;;;;;;5076883;28;20669;-69
2022/03/27 00:38:44;;;;;;;3.77;2.10;;;4.00;72.80;;;;;;5064423;28;20205;-69
2022/03/27 00:41:11;;;;;;;6.37;2.30;;;4.00;72.80;;;;;;5071618;28;20622;-69
2022/03/27 00:43:39;;;;;;;3.93;2.13;;;4.00;72.70;;;;;;5074466;28;20283;-69
2022/03/27 00:46:06;;;;;;;5.37;2.33;;;3.90;72.50;;;;;;5074750;28;20236;-69
2022/03/27 00:48:34;;;;;;;5.73;2.10;;;3.90;72.40;;;;;;5075252;28;20720;-68
2022/03/27 00:51:03;;;;;;;6.10;2.20;;;3.90;72.40;;;;;;5066598;28;20225;-68
2022/03/27 00:53:31;;;;;;;4.87;2.37;;;3.90;72.30;;;;;;5071569;28;20240;-67
2022/03/27 00:55:58;;;;;;;7.53;2.10;;;3.90;71.90;;;;;;5077229;28;20564;-69
2022/03/27 00:58:25;;;;;;;4.53;1.83;;;3.90;71.80;;;;;;5075869;28;20296;-69
2022/03/27 01:00:57;;;;;;;4.90;2.57;;;3.90;71.70;;;;;;5075519;28;20731;-67
2022/03/27 01:03:26;;;;;;;3.63;2.23;;;3.90;71.50;;;;;;5074958;28;20266;-67
2022/03/27 01:05:57;;;;;;;5.83;2.17;;;3.90;71.50;;;;;;5065893;28;20308;-67
2022/03/27 01:11:14;;;;;;;5.77;1.83;;;3.90;71.50;;;;;;5065139;28;20200;-68
2022/03/27 01:13:44;;;;;;;6.07;2.00;;;3.90;71.50;;;;;;5068857;28;20240;-67
2022/03/27 01:16:27;;;;;;;5.33;2.17;;;3.90;71.60;;;;;;5067078;28;20217;-67
2022/03/27 01:18:54;;;;;;;6.90;1.97;;;3.90;71.80;;;;;;5074866;28;20292;-67
2022/03/27 01:21:22;;;;;;;3.70;1.50;;;3.80;71.80;;;;;;5075431;28;20229;-68
2022/03/27 01:23:49;;;;;;;4.23;1.97;;;3.80;72.10;;;;;;5072537;28;20205;-66
2022/03/27 01:26:18;;;;;;;4.37;1.83;;;3.80;72.30;;;;;;5062546;28;20642;-67
2022/03/27 01:28:45;;;;;;;4.03;1.90;;;3.80;72.60;;;;;;5075330;28;20217;-67
2022/03/27 01:31:12;;;;;;;6.77;2.23;;;3.80;72.80;;;;;;5074015;28;20227;-66
2022/03/27 01:33:39;;;;;;;4.07;1.87;;;3.70;73.70;;;;;;5074405;28;20205;-67
2022/03/27 01:36:06;;;;;;;3.53;1.63;;;3.60;72.90;;;;;;5076420;28;20240;-67
2022/03/27 01:38:35;;;;;;;4.63;2.40;;;3.70;73.40;;;;;;5063881;28;20201;-66
2022/03/27 01:41:02;;;;;;;7.10;2.40;;;3.60;73.40;;;;;;5075384;28;20233;-66
2022/03/27 01:43:29;;;;;;;3.30;1.60;;;3.60;73.60;;;;;;5074638;28;20240;-66
2022/03/27 01:45:56;;;;;;;3.57;2.17;;;3.60;73.60;;;;;;5073943;28;20244;-66
2022/03/27 01:48:22;;;;;;;3.77;2.00;;;3.60;73.70;;;;;;5061924;28;20697;-68
2022/03/27 01:50:59;;;;;;;4.13;2.17;;;3.60;73.80;;;;;;5075765;28;20212;-67
2022/03/27 01:53:25;;;;;;;6.60;2.13;;;3.60;73.90;;;;;;5073085;28;20299;-67
2022/03/27 01:55:54;;;;;;;3.40;1.93;;;3.50;74.00;;;;;;5074900;28;20216;-66
2022/03/27 01:58:21;;;;;;;4.43;2.00;;;3.50;74.00;;;;;;5072615;28;20201;-66
2022/03/27 02:00:48;;;;;;;3.07;1.70;;;3.50;74.10;;;;;;5074996;28;20211;-66
2022/03/27 02:03:15;;;;;;;3.73;1.77;;;3.50;74.10;;;;;;5073121;28;20211;-67
2022/03/27 02:05:41;;;;;;;5.43;1.93;;;3.50;74.10;;;;;;5072479;28;20228;-67
2022/03/27 02:08:09;;;;;;;7.07;2.23;;;3.50;74.10;;;;;;5073480;28;20221;-67
2022/03/27 02:10:36;;;;;;;5.33;1.80;;;3.50;74.10;;;;;;5074006;28;20205;-67
2022/03/27 02:13:04;;;;;;;4.17;1.70;;;3.50;74.20;;;;;;5072992;28;20568;-67
2022/03/27 02:15:31;;;;;;;3.93;2.20;;;3.50;74.40;;;;;;5074214;28;20206;-66
2022/03/27 02:18:01;;;;;;;5.40;2.10;;;3.40;74.40;;;;;;5068557;28;20292;-67
2022/03/27 02:20:28;;;;;;;5.40;1.80;;;3.40;74.50;;;;;;5072968;28;20216;-68
2022/03/27 02:22:55;;;;;;;6.40;1.90;;;3.30;74.70;;;;;;5072561;28;20296;-67
2022/03/27 02:25:22;;;;;;;2.63;1.77;;;3.20;75.00;;;;;;5061366;28;20206;-66
2022/03/27 02:27:49;;;;;;;6.83;2.47;;;3.20;75.30;;;;;;5071120;28;20229;-66
2022/03/27 02:30:19;;;;;;;5.97;2.10;;;3.20;75.60;;;;;;5074196;28;20296;-67
2022/03/27 02:32:46;;;;;;;4.77;2.13;;;3.20;75.80;;;;;;5059607;28;20201;-66
2022/03/27 02:35:13;;;;;;;5.97;2.70;;;3.10;75.80;;;;;;5072979;28;20201;-66
2022/03/27 02:37:40;;;;;;;4.70;2.17;;;3.10;75.80;;;;;;5071787;28;20211;-67
2022/03/27 02:40:08;;;;;;;5.03;1.60;;;3.10;76.20;;;;;;5059217;28;20265;-66
2022/03/27 02:42:35;;;;;;;4.60;2.10;;;3.00;76.30;;;;;;5067914;28;20705;-66
2022/03/27 02:45:02;;;;;;;4.83;1.93;;;3.00;76.40;;;;;;5069216;28;20232;-67
2022/03/27 02:47:30;;;;;;;4.80;1.97;;;3.00;76.50;;;;;;5071920;28;20209;-67
2022/03/27 02:49:57;;;;;;;5.13;2.13;;;2.90;76.60;;;;;;5072152;28;20259;-66
2022/03/27 02:52:24;;;;;;;7.77;2.47;;;2.90;76.90;;;;;;5070140;28;20642;-65
2022/03/27 02:54:51;;;;;;;4.77;2.17;;;2.80;76.90;;;;;;5066438;28;20576;-66
2022/03/27 02:57:18;;;;;;;4.40;1.87;;;2.80;77.30;;;;;;5072211;28;20220;-66
2022/03/27 02:59:45;;;;;;;7.33;2.77;;;2.80;77.60;;;;;;5072789;28;20284;-67
2022/03/27 03:02:12;;;;;;;6.03;2.23;;;2.70;77.80;;;;;;5072705;28;20284;-67
2022/03/27 03:04:40;;;;;;;3.50;1.87;;;2.70;78.10;;;;;;5071596;28;20646;-67
2022/03/27 03:07:08;;;;;;;5.23;2.17;;;2.70;78.50;;;;;;5072193;28;20209;-67
2022/03/27 03:09:35;;;;;;;3.87;2.17;;;2.70;78.70;;;;;;5073257;28;20893;-67
2022/03/27 03:12:02;;;;;;;3.00;2.00;;;2.60;78.60;;;;;;5072978;28;20674;-66
2022/03/27 03:14:29;;;;;;;3.50;2.27;;;2.50;78.70;;;;;;5070120;28;20244;-67
2022/03/27 03:16:57;;;;;;;4.70;2.10;;;2.50;79.40;;;;;;5063041;28;20683;-68
2022/03/27 03:19:24;;;;;;;5.23;2.40;;;2.40;79.70;;;;;;5072487;28;20228;-66
2022/03/27 03:21:53;;;;;;;6.13;2.73;;;2.40;80.00;;;;;;5072937;28;20259;-67
2022/03/27 03:24:19;;;;;;;3.37;2.30;;;2.40;80.30;;;;;;5071099;28;20677;-66
2022/03/27 03:26:47;;;;;;;4.00;2.27;;;2.40;81.20;;;;;;5071538;28;20662;-67
2022/03/27 03:29:14;;;;;;;6.07;2.40;;;2.40;80.90;;;;;;5073876;28;20274;-66
2022/03/27 03:31:41;;;;;;;3.03;1.90;;;2.30;81.10;;;;;;5073820;28;20266;-67
2022/03/27 03:34:08;;;;;;;6.13;2.33;;;2.30;81.20;;;;;;5072810;28;20618;-66
2022/03/27 03:36:35;;;;;;;5.23;2.23;;;2.30;81.50;;;;;;5074081;28;20300;-66
2022/03/27 03:39:03;;;;;;;4.30;2.30;;;2.30;81.70;;;;;;5065886;28;20630;-67
2022/03/27 03:41:30;;;;;;;3.67;2.37;;;2.30;81.70;;;;;;5074884;28;20632;-67
2022/03/27 03:43:57;;;;;;;5.80;2.43;;;2.30;81.80;;;;;;5081397;28;20255;-66
2022/03/27 03:46:24;;;;;;;2.90;1.80;;;2.30;81.90;;;;;;5078823;28;20208;-66
2022/03/27 03:48:51;;;;;;;6.00;2.10;;;2.30;82.10;;;;;;5066034;28;20301;-66
2022/03/27 03:51:19;;;;;;;3.90;1.70;;;2.30;82.10;;;;;;5080947;28;20240;-66
2022/03/27 03:53:46;;;;;;;4.83;1.97;;;2.30;82.30;;;;;;5076147;28;20209;-67
2022/03/27 03:56:14;;;;;;;4.90;1.90;;;2.30;83.30;;;;;;5080539;28;20300;-67
2022/03/27 03:58:41;;;;;;;8.67;2.00;;;2.30;82.70;;;;;;5079931;28;20208;-66
2022/03/27 04:01:08;;;;;;;7.17;2.57;;;2.20;82.80;;;;;;5079797;28;20205;-67
2022/03/27 04:03:35;;;;;;;7.83;3.10;;;2.20;83.10;;;;;;5079921;28;20225;-67
2022/03/27 04:06:02;;;;;;;6.83;1.90;;;2.20;83.20;;;;;;5075083;28;20212;-66
2022/03/27 04:08:29;;;;;;;5.37;2.40;;;2.20;83.40;;;;;;5071502;28;20654;-66
2022/03/27 04:10:55;;;;;;;7.00;2.10;;;2.10;83.60;;;;;;5073630;28;20296;-66
2022/03/27 04:13:24;;;;;;;4.83;2.03;;;2.20;84.10;;;;;;5060906;28;20209;-66
2022/03/27 04:15:50;;;;;;;2.87;1.60;;;2.10;84.00;;;;;;5069232;28;20757;-66
2022/03/27 04:18:17;;;;;;;2.27;1.80;;;2.10;85.00;;;;;;5070736;28;20713;-67
2022/03/27 04:20:44;;;;;;;4.13;2.03;;;2.10;84.60;;;;;;5072459;28;20229;-67
2022/03/27 04:23:11;;;;;;;5.13;2.63;;;2.10;84.70;;;;;;5071003;28;20206;-66
2022/03/27 04:25:39;;;;;;;6.53;2.20;;;2.10;85.00;;;;;;5072351;28;20709;-66
2022/03/27 04:28:06;;;;;;;6.73;2.10;;;2.10;85.30;;;;;;5071845;28;20228;-68
2022/03/27 04:30:35;;;;;;;5.90;2.40;;;2.10;85.50;;;;;;5071429;28;20213;-67
2022/03/27 04:33:02;;;;;;;4.67;1.87;;;2.10;85.70;;;;;;5057815;28;20301;-67
2022/03/27 04:35:29;;;;;;;4.47;2.20;;;2.10;85.80;;;;;;5074534;28;20304;-67
2022/03/27 04:37:56;;;;;;;2.70;1.50;;;2.10;86.10;;;;;;5074965;28;20291;-67
2022/03/27 04:40:23;;;;;;;5.23;1.83;;;2.10;86.50;;;;;;5061840;28;20229;-67
2022/03/27 04:42:49;;;;;;;5.83;2.10;;;2.10;86.60;;;;;;5075002;28;20578;-67
2022/03/27 04:45:17;;;;;;;6.83;2.10;;;2.30;87.00;;;;;;5075686;28;20201;-67
2022/03/27 04:47:45;;;;;;;3.30;1.97;;;2.20;87.10;;;;;;5062718;28;20255;-65
2022/03/27 04:50:12;;;;;;;4.60;1.90;;;2.20;87.10;;;;;;5075292;28;20221;-66
2022/03/27 04:52:39;;;;;;;5.53;2.10;;;2.20;87.10;;;;;;5063659;28;20209;-67
2022/03/27 04:55:07;;;;;;;4.70;2.27;;;2.20;87.30;;;;;;5071592;28;20621;-67
2022/03/27 04:57:34;;;;;;;4.53;1.90;;;2.20;87.40;;;;;;5073068;28;20299;-67
2022/03/27 05:00:01;;;;;;;5.23;1.93;;;2.20;87.60;;;;;;5074952;28;20205;-66
2022/03/27 05:02:28;;;;;;;4.17;2.40;;;2.20;87.90;;;;;;5071952;28;20213;-67
2022/03/27 05:04:57;;;;;;;3.93;1.73;;;2.30;88.10;;;;;;5076579;28;20273;-66
2022/03/27 05:07:24;;;;;;;5.37;2.00;;;2.30;88.10;;;;;;5074295;28;20208;-66
2022/03/27 05:09:50;;;;;;;7.73;2.53;;;2.30;88.20;;;;;;5075030;28;20230;-67
2022/03/27 05:12:17;;;;;;;5.93;1.90;;;2.30;88.60;;;;;;5074668;28;20205;-67
2022/03/27 05:14:44;;;;;;;6.43;1.87;;;2.40;88.90;;;;;;5074001;28;20245;-67
2022/03/27 05:17:11;;;;;;;5.03;2.20;;;2.40;88.70;;;;;;5072646;28;20288;-67
2022/03/27 05:19:38;;;;;;;3.43;1.90;;;2.50;89.10;;;;;;5075305;28;20631;-66
2022/03/27 05:22:07;;;;;;;4.33;1.63;;;2.50;89.10;;;;;;5074680;28;20249;-68
2022/03/27 05:24:34;;;;;;;4.43;1.47;;;2.60;89.20;;;;;;5074865;28;20237;-66
2022/03/27 05:27:01;;;;;;;5.67;2.13;;;2.60;89.30;;;;;;5074374;28;20229;-67
2022/03/27 05:29:28;;;;;;;6.40;2.27;;;2.70;89.30;;;;;;5074083;28;20312;-67
2022/03/27 05:31:55;;;;;;;3.37;1.73;;;2.70;89.30;;;;;;5073742;28;20689;-67
2022/03/27 05:34:22;;;;;;;7.20;2.10;;;2.70;89.40;;;;;;5075216;28;20219;-67
2022/03/27 05:36:49;;;;;;;6.60;2.20;;;2.80;89.60;;;;;;5075197;28;20205;-67
2022/03/27 05:39:18;;;;;;;4.37;2.03;;;2.90;89.70;;;;;;5074801;28;20212;-66
2022/03/27 05:41:45;;;;;;;7.07;2.30;;;2.90;89.70;;;;;;5074795;28;20288;-67
2022/03/27 05:44:12;;;;;;;3.50;1.93;;;3.00;89.90;;;;;;5074897;28;20733;-67
2022/03/27 05:46:39;;;;;;;5.40;2.40;;;3.10;89.90;;;;;;5069927;28;20323;-66
2022/03/27 05:49:06;;;;;;;2.90;1.77;;;3.20;89.80;;;;;;5071440;28;20320;-66
2022/03/27 05:51:33;;;;;;;5.50;1.93;;;3.20;89.80;;;;;;5073930;28;20733;-67
2022/03/27 05:54:00;;;;;;;9.97;2.50;;;3.30;90.00;;;;;;5074968;28;20553;-66
2022/03/27 05:56:28;;;;;;;5.20;2.20;;;3.40;90.00;;;;;;5073185;28;20288;-67
2022/03/27 05:58:55;;;;;;;4.10;2.20;;;3.50;90.00;;;;;;5074983;28;20536;-67
2022/03/27 06:01:22;;;;;;;4.93;2.00;;;3.60;90.10;;;;;;5071950;28;20319;-66
2022/03/27 06:03:48;;;;;;;6.13;2.30;;;3.70;90.10;;;;;;5075046;28;20678;-67
2022/03/27 06:06:15;;;;;;;5.83;1.80;;;3.80;89.70;;;;;;5074072;28;20239;-67
2022/03/27 06:08:42;;;;;;;5.23;1.90;;;4.00;89.70;;;;;;5074015;28;20316;-67
2022/03/27 06:11:09;;;;;;;5.33;1.97;;;4.30;89.60;;;;;;5066881;28;20296;-67
2022/03/27 06:13:37;;;;;;;3.90;2.33;;;4.60;88.70;;;;;;5069233;28;20670;-66
2022/03/27 06:16:05;;;;;;;6.60;1.90;;;4.90;87.50;;;;;;5073897;28;20278;-67
2022/03/27 06:18:32;;;;;;;4.90;1.60;;;5.10;86.00;;;;;;5062403;28;20293;-67
2022/03/27 06:20:58;;;;;;;4.87;1.80;;;5.20;84.50;;;;;;5072824;28;20674;-67
2022/03/27 06:23:25;;;;;;;2.57;1.40;;;5.30;83.60;;;;;;5075257;28;20211;-66
2022/03/27 06:25:52;;;;;;;3.90;1.40;;;5.30;82.50;;;;;;5064435;28;20644;-67
2022/03/27 06:28:19;;;;;;;4.53;1.87;;;5.30;81.40;;;;;;5063730;28;20206;-67
2022/03/27 06:30:47;;;;;;;4.13;1.47;;;5.30;81.30;;;;;;5064426;28;20260;-67
2022/03/27 06:33:15;;;;;;;2.33;1.40;;;5.40;80.50;;;;;;5062396;28;20309;-67
2022/03/27 06:35:42;;;;;;;3.70;1.20;;;5.40;79.70;;;;;;5063076;28;20212;-67
2022/03/27 06:38:08;;;;;;;3.37;1.60;;;5.40;78.90;;;;;;5061240;28;20205;-68
2022/03/27 06:40:35;;;;;;;1.97;1.33;;;5.40;78.10;;;;;;5069673;28;20244;-67
2022/03/27 06:43:04;;;;;;;4.30;1.40;;;5.50;77.30;;;;;;5066646;28;20655;-67
2022/03/27 06:45:31;;;;;;;2.63;1.77;;;5.50;76.60;;;;;;5071178;28;20716;-67
2022/03/27 06:47:59;;;;;;;2.57;1.30;;;5.50;76.00;;;;;;5068861;28;20213;-68
2022/03/27 06:50:26;;;;;;;4.40;1.30;;;5.60;75.50;;;;;;5062996;28;20222;-68
2022/03/27 06:52:55;;;;;;;2.37;1.13;;;5.60;74.90;;;;;;5069134;28;20211;-67
2022/03/27 06:55:21;;;;;;;3.47;1.00;;;5.70;74.10;;;;;;5071744;28;20209;-67
2022/03/27 06:57:49;;;;;;;3.83;1.20;;;5.80;73.40;;;;;;5068655;28;20248;-69
2022/03/27 07:03:06;;;;;;;1.53;0.90;;;6.00;72.90;;;;;;5061818;28;20209;-68
2022/03/27 07:05:36;;;;;;;3.03;1.50;;;6.10;72.00;;;;;;5060194;28;20202;-67
2022/03/27 07:08:05;;;;;;;3.73;1.10;;;6.20;71.10;;;;;;5057440;28;20208;-68
2022/03/27 07:10:32;;;;;;;1.80;1.10;;;6.40;70.30;;;;;;5066425;28;20307;-67
2022/03/27 07:12:59;;;;;;;2.77;1.30;;;6.50;69.30;;;;;;5067783;28;20241;-67
2022/03/27 07:15:26;;;;;;;1.63;1.07;;;6.60;68.30;;;;;;5070744;28;20282;-67
2022/03/27 07:17:54;;;;;;;3.67;1.30;;;6.70;67.00;;;;;;5068440;28;20211;-66
2022/03/27 07:20:25;;;;;;;1.33;0.93;;;6.70;65.10;;;;;;5059329;28;20487;-68
2022/03/27 07:22:53;;;;;;;1.30;1.00;;;6.60;64.20;;;;;;5067146;28;20564;-66
2022/03/27 07:25:20;;;;;;;3.60;1.40;;;6.70;63.90;;;;;;5063669;28;20213;-67
2022/03/27 07:27:48;;;;;;;1.73;1.10;;;6.70;63.40;;;;;;5061983;28;20670;-66
2022/03/27 07:30:15;;;;;;;1.17;1.03;;;6.80;62.30;;;;;;5059689;28;20225;-67
2022/03/27 07:32:42;;;;;;;1.03;0.93;;;6.90;62.00;;;;;;5061814;28;20213;-68
2022/03/27 07:35:10;;;;;;;2.00;1.20;;;6.90;61.60;;;;;;5068503;28;20313;-67
2022/03/27 07:37:39;;;;;;;4.20;1.33;;;7.00;61.80;;;;;;5063311;28;20696;-67
2022/03/27 07:40:09;;;;;;;4.60;1.60;;;7.10;61.60;;;;;;5069117;28;20322;-68
2022/03/27 07:42:36;;;;;;;4.93;1.47;;;7.30;61.60;;;;;;5068310;28;20206;-68
2022/03/27 07:45:04;;;;;;;2.50;0.90;;;7.50;60.80;;;;;;5068714;28;20229;-68
2022/03/27 07:47:31;;;;;;;1.47;1.00;;;7.60;59.60;;;;;;5055441;28;20561;-67
2022/03/27 07:49:59;;;;;;;1.93;1.00;;;7.80;57.40;;;;;;5061580;28;20589;-67
2022/03/27 07:52:26;;;;;;;2.93;1.20;;;7.90;54.30;;;;;;5064888;28;20201;-67
2022/03/27 07:54:54;;;;;;;1.80;1.00;;;8.00;53.20;;;;;;5064458;28;20284;-67
2022/03/27 07:57:21;;;;;;;1.77;0.80;;;8.10;52.70;;;;;;5065784;28;20223;-67
2022/03/27 07:59:49;;;;;;;1.80;1.13;;;8.30;51.80;;;;;;5059281;28;20223;-67
2022/03/27 08:02:16;;;;;;;1.43;0.73;;;8.40;49.70;;;;;;5071217;28;20205;-68
2022/03/27 08:04:43;;;;;;;1.43;0.80;;;8.50;48.40;;;;;;5064909;28;20201;-67
2022/03/27 08:07:10;;;;;;;1.67;0.90;;;8.60;47.40;;;;;;5069472;28;20288;-66
2022/03/27 08:09:36;;;;;;;1.17;0.73;;;8.70;46.40;;;;;;5063876;28;20317;-67
2022/03/27 08:12:07;;;;;;;1.30;0.80;;;8.80;44.60;;;;;;5068147;28;20209;-67
2022/03/27 08:14:34;;;;;;;0.80;0.70;;;8.90;43.70;;;;;;5074816;28;20287;-67
2022/03/27 08:17:01;;;;;;;2.50;1.20;;;9.20;43.30;;;;;;5071981;28;20242;-67
2022/03/27 08:19:28;;;;;;;1.63;0.90;;;9.20;42.80;;;;;;5073175;28;20229;-68
2022/03/27 08:21:55;;;;;;;3.33;0.93;;;9.40;42.30;;;;;;5071075;28;20700;-69
2022/03/27 08:24:23;;;;;;;0.80;0.50;;;9.50;42.10;;;;;;5074138;28;20201;-67
2022/03/27 08:26:59;;;;;;;1.67;0.70;;;9.80;41.40;;;;;;5068678;28;20618;-69
2022/03/27 08:29:29;;;;;;;2.23;0.70;;;10.00;39.50;;;;;;5067673;28;20218;-68
2022/03/27 08:31:59;;;;;;;0.87;0.67;;;10.20;38.70;;;;;;5074232;28;20296;-69
2022/03/27 08:34:25;;;;;;;0.77;0.73;;;10.30;38.00;;;;;;5063068;28;20206;-66
2022/03/27 08:36:52;;;;;;;0.87;0.60;;;10.40;37.90;;;;;;5057849;28;20670;-68
2022/03/27 08:39:19;;;;;;;2.80;0.97;;;10.50;37.40;;;;;;5075023;28;20215;-69
2022/03/27 08:41:48;;;;;;;1.77;1.20;;;10.60;37.30;;;;;;5073404;28;20300;-69
2022/03/27 08:44:18;;;;;;;1.93;0.70;;;10.80;37.20;;;;;;5068424;28;20229;-68
2022/03/27 08:46:48;;;;;;;0.93;0.70;;;10.90;36.70;;;;;;5068543;28;20232;-68
2022/03/27 08:49:34;;;;;;;1.13;1.00;;;10.90;36.40;;;;;;5071411;28;20197;-66
2022/03/27 08:52:11;;;;;;;0.80;0.80;;;11.00;36.30;;;;;;5074027;28;20197;-68
2022/03/27 08:54:42;;;;;;;0.97;0.70;;;11.10;36.40;;;;;;5062932;28;20204;-67
2022/03/27 08:57:21;;;;;;;1.37;0.97;;;11.30;37.20;;;;;;5071055;28;20208;-66
2022/03/27 08:59:52;;;;;;;0.87;0.60;;;11.50;36.00;;;;;;5076315;28;20231;-67
2022/03/27 09:02:22;;;;;;;0.80;0.77;;;11.80;35.60;;;;;;5059203;28;20205;-70
2022/03/27 09:04:51;;;;;;;2.87;1.07;;;11.90;34.80;;;;;;5066380;28;20209;-68
2022/03/27 09:07:19;;;;;;;1.57;0.80;;;12.20;35.00;;;;;;5073906;28;20682;-70
2022/03/27 09:09:46;;;;;;;1.37;0.80;;;12.40;34.50;;;;;;5069817;28;20221;-68
2022/03/27 09:12:13;;;;;;;1.27;0.87;;;12.60;34.10;;;;;;5067223;28;20233;-68
2022/03/27 09:14:41;;;;;;;1.90;1.00;;;12.90;33.70;;;;;;5063724;28;20237;-68
2022/03/27 09:17:08;;;;;;;1.93;0.90;;;13.20;34.80;;;;;;5074126;28;20208;-68
2022/03/27 09:19:39;;;;;;;1.30;0.60;;;13.70;34.20;;;;;;5069205;28;20209;-69
2022/03/27 09:22:17;;;;;;;1.27;0.70;;;15.20;36.00;;;;;;5072623;28;20237;-69
2022/03/27 09:24:46;;;;;;;1.40;0.80;;;18.20;31.80;;;;;;5064741;28;20299;-68
2022/03/27 09:27:13;;;;;;;1.00;0.77;;;21.00;30.10;;;;;;5065059;28;20207;-70
2022/03/27 09:30:06;;;;;;;1.13;0.65;;;23.50;27.60;;;;;;5064850;28;20209;-69
2022/03/27 09:32:36;;;;;;;1.30;0.82;;;26.00;25.10;;;;;;5059605;28;20227;-69
2022/03/27 09:35:08;;;;;;;1.60;1.05;;;27.40;23.30;;;;;;5060676;28;20269;-69
2022/03/27 09:37:37;;;;;;;2.85;1.02;;;28.20;22.80;;;;;;5070773;28;20228;-69
2022/03/27 09:40:05;;;;;;;1.17;0.88;;;28.60;21.90;;;;;;5059274;28;20201;-68
2022/03/27 09:42:32;;;;;;;1.50;1.10;;;28.90;21.80;;;;;;5071017;28;20268;-67
2022/03/27 09:45:15;;;;;;;1.02;0.90;;;29.00;21.50;;;;;;5069512;28;20237;-68
2022/03/27 09:47:44;;;;;;;2.35;0.90;;;28.70;21.50;;;;;;5062578;28;20292;-68
2022/03/27 09:50:31;;;;;;;2.25;1.10;;;28.50;21.50;;;;;;5063999;28;20676;-68
2022/03/27 09:53:19;;;;;;;1.30;1.00;;;28.70;21.30;;;;;;5065946;28;20205;-70
2022/03/27 09:55:47;;;;;;;2.30;1.08;;;28.80;20.70;;;;;;5066530;28;20205;-71
2022/03/27 09:58:15;;;;;;;1.45;1.00;;;29.00;21.40;;;;;;5070595;28;20807;-69
2022/03/27 10:00:43;;;;;;;2.65;1.02;;;29.40;20.40;;;;;;5066142;28;20233;-69
2022/03/27 10:03:11;;;;;;;1.52;0.85;;;29.80;20.40;;;;;;5065600;28;20208;-68
2022/03/27 10:05:39;;;;;;;1.73;1.10;;;30.00;20.30;;;;;;5061716;28;20575;-69
2022/03/27 10:08:07;;;;;;;2.85;1.23;;;29.90;19.90;;;;;;5066284;28;20662;-69
2022/03/27 10:10:34;;;;;;;1.48;1.10;;;29.40;20.80;;;;;;5068618;28;20714;-69
2022/03/27 10:13:01;;;;;;;1.48;1.00;;;29.20;20.70;;;;;;5057946;28;20209;-68
2022/03/27 10:15:30;;;;;;;1.77;1.10;;;29.20;20.70;;;;;;5062786;28;20205;-69
2022/03/27 10:17:59;;;;;;;2.25;0.93;;;29.10;20.60;;;;;;5068611;28;20209;-70
2022/03/27 10:20:29;;;;;;;3.05;1.23;;;29.20;20.70;;;;;;5062141;28;20566;-68
2022/03/27 10:23:03;;;;;;;3.78;1.17;;;29.10;20.60;;;;;;5066439;28;20235;-68
2022/03/27 10:25:38;;;;;;;1.42;0.80;;;28.80;20.30;;;;;;5057796;28;20206;-68
2022/03/27 10:28:06;;;;;;;1.55;0.82;;;28.40;20.20;;;;;;5073221;28;20300;-69
2022/03/27 10:30:35;;;;;;;1.65;0.93;;;27.90;20.50;;;;;;5069413;28;20225;-69
2022/03/27 10:33:02;;;;;;;2.63;1.00;;;27.50;20.60;;;;;;5072589;28;20701;-68
2022/03/27 10:35:44;;;;;;;1.73;1.00;;;27.30;21.00;;;;;;5063247;28;20568;-68
2022/03/27 10:38:20;;;;;;;1.35;0.75;;;26.90;20.90;;;;;;5060678;28;20216;-68
2022/03/27 10:40:56;;;;;;;3.75;1.08;;;26.70;21.00;;;;;;5063833;28;20613;-68
2022/03/27 10:43:29;;;;;;;1.42;1.10;;;26.40;21.20;;;;;;5073438;28;20814;-68
2022/03/27 10:46:13;;;;;;;1.17;1.02;;;26.10;20.70;;;;;;5073747;28;20701;-68
2022/03/27 10:48:42;;;;;;;1.98;1.15;;;25.80;21.30;;;;;;5073831;28;20728;-68
2022/03/27 10:51:10;;;;;;;2.08;1.10;;;25.50;21.50;;;;;;5071446;28;20231;-68
2022/03/27 10:53:38;;;;;;;1.88;0.82;;;25.30;21.80;;;;;;5074950;28;20209;-68
2022/03/27 10:56:05;;;;;;;2.83;0.80;;;25.50;22.00;;;;;;5072967;28;20216;-69
2022/03/27 10:58:38;;;;;;;1.17;1.00;;;25.30;21.50;;;;;;5058993;28;20217;-69
2022/03/27 11:01:08;;;;;;;2.65;1.08;;;25.00;21.40;;;;;;5072977;28;20284;-68
2022/03/27 11:03:51;;;;;;;2.83;1.30;;;24.30;21.70;;;;;;5072148;28;20300;-68
2022/03/27 11:06:22;;;;;;;5.15;1.52;;;23.20;22.20;;;;;;5066723;28;20227;-69
2022/03/27 11:08:51;;;;;;;2.30;1.02;;;22.70;22.40;;;;;;5069470;28;20672;-68
2022/03/27 11:12:03;;;;;;;1.33;1.15;;;22.50;22.60;;;;;;5072409;28;20241;-69
2022/03/27 11:14:57;;;;;;;2.08;1.15;;;22.50;22.70;;;;;;5071674;28;20657;-68
2022/03/27 11:17:40;;;;;;;0.95;0.68;;;22.60;23.00;;;;;;5072149;28;20220;-69
2022/03/27 11:20:09;;;;;;;1.67;1.10;;;22.50;23.30;;;;;;5072258;28;20293;-70
2022/03/27 11:22:49;;;;;;;1.75;1.00;;;22.50;23.20;;;;;;5057515;28;20221;-69
2022/03/27 11:25:46;;;;;;;2.20;1.00;;;22.30;23.10;;;;;;5072645;28;20288;-67
2022/03/27 11:28:16;;;;;;;1.70;1.05;;;21.80;23.80;;;;;;5066535;28;20688;-68
2022/03/27 11:31:17;;;;;;;1.50;0.80;;;21.70;23.90;;;;;;5072094;28;20241;-68
2022/03/27 11:33:45;;;;;;;4.72;1.23;;;21.50;23.60;;;;;;5072084;28;20204;-68
2022/03/27 11:36:25;;;;;;;2.35;1.23;;;21.40;24.00;;;;;;5071874;28;20217;-69
2022/03/27 11:39:11;;;;;;;3.40;1.30;;;21.20;24.00;;;;;;5059966;28;20216;-68
2022/03/27 11:41:43;;;;;;;2.88;1.08;;;21.10;24.20;;;;;;5069566;28;20204;-68
2022/03/27 11:44:23;;;;;;;2.22;0.75;;;21.00;24.20;;;;;;5070903;28;20237;-68
2022/03/27 11:46:52;;;;;;;1.80;0.90;;;20.90;24.40;;;;;;5072365;28;20271;-68
2022/03/27 11:49:20;;;;;;;1.60;0.90;;;20.80;24.30;;;;;;5072211;28;20239;-69
2022/03/27 11:51:47;;;;;;;1.23;0.70;;;20.70;24.50;;;;;;5069532;28;20852;-69
2022/03/27 11:54:18;;;;;;;1.83;0.90;;;20.60;24.50;;;;;;5060888;28;20258;-68
2022/03/27 11:56:56;;;;;;;2.13;0.90;;;20.80;24.50;;;;;;5069643;28;20261;-68
2022/03/27 11:59:26;;;;;;;2.17;1.20;;;20.90;24.60;;;;;;5061047;28;20573;-68
2022/03/27 12:01:53;;;;;;;1.98;1.05;;;21.00;24.60;;;;;;5071658;28;20292;-69
2022/03/27 12:04:20;;;;;;;4.05;0.80;;;21.20;24.60;;;;;;5071628;28;20205;-70
2022/03/27 12:06:54;;;;;;;1.77;0.88;;;21.20;24.10;;;;;;5071915;28;20205;-69
2022/03/27 12:09:26;;;;;;;2.15;0.85;;;21.00;24.40;;;;;;5071220;28;20211;-69
2022/03/27 12:12:10;;;;;;;2.15;1.23;;;20.80;24.80;;;;;;5070631;28;20307;-69
2022/03/27 12:14:51;;;;;;;0.93;0.80;;;20.70;25.00;;;;;;5071516;28;20237;-69
2022/03/27 12:17:18;;;;;;;2.72;1.00;;;20.80;25.10;;;;;;5057608;28;20205;-69
2022/03/27 12:19:57;;;;;;;1.98;1.23;;;20.70;24.90;;;;;;5066218;28;20654;-68
2022/03/27 12:22:37;;;;;;;1.10;0.70;;;20.70;25.20;;;;;;5066197;28;20229;-69
2022/03/27 12:25:07;;;;;;;1.00;0.70;;;20.50;25.20;;;;;;5068826;28;20201;-68
2022/03/27 12:30:20;;;;;;;1.83;1.20;;;20.10;25.40;;;;;;5063207;28;20212;-68
2022/03/27 12:32:48;;;;;;;2.63;1.30;;;19.80;25.30;;;;;;5068569;28;20202;-69
2022/03/27 12:35:23;;;;;;;1.30;0.88;;;19.70;25.70;;;;;;5066080;28;20212;-69
2022/03/27 12:37:50;;;;;;;2.83;1.02;;;19.50;25.50;;;;;;5064535;28;20663;-68
2022/03/27 12:40:18;;;;;;;2.08;0.98;;;19.20;25.80;;;;;;5055179;28;20216;-68
2022/03/27 12:42:47;;;;;;;4.72;1.27;;;19.00;26.10;;;;;;5068635;28;20304;-69
2022/03/27 12:45:18;;;;;;;2.33;1.00;;;19.00;26.00;;;;;;5028218;28;20636;-70
2022/03/27 12:47:47;;;;;;;1.42;1.00;;;18.80;26.30;;;;;;5019908;28;20207;-68
2022/03/27 12:50:15;;;;;;;2.20;1.10;;;18.80;26.40;;;;;;5015538;28;20207;-70
2022/03/27 12:52:53;;;;;;;2.45;1.10;;;18.80;26.40;;;;;;5021237;28;20648;-69
2022/03/27 12:55:20;;;;;;;2.15;0.90;;;18.70;26.60;;;;;;5022659;28;20198;-69
2022/03/27 12:58:00;;;;;;;1.45;0.90;;;18.70;26.50;;;;;;5021312;28;20211;-69
2022/03/27 13:00:31;;;;;;;1.63;0.98;;;18.60;26.40;;;;;;5019618;28;20268;-69
2022/03/27 13:03:18;;;;;;;2.72;1.13;;;18.50;26.80;;;;;;5021567;28;20205;-69
2022/03/27 13:06:00;;;;;;;2.03;1.20;;;18.70;26.70;;;;;;5029689;28;20205;-68
2022/03/27 13:08:28;;;;;;;2.55;1.00;;;18.80;26.60;;;;;;5020831;28;20234;-68
2022/03/27 13:10:59;;;;;;;1.88;1.10;;;18.80;26.60;;;;;;5030880;28;20265;-69
2022/03/27 13:13:35;;;;;;;3.63;1.48;;;18.50;26.60;;;;;;5035177;28;20210;-70